Flight Track Log - Related Links

Times and Time Zones

All times are in EDT time to prevent confusion due to time zone crossing. See the TRS322 flight status page for this flight to view local times or setup timezone preferences in your user account.

Time Position Orientation Groundspeed Altitude Reporting Facility
EDT Latitude Longitude Course Direction KTS MPH feet Rate Location/Type
Sat 11:05:11 AM 33.6500 -84.4000 90° East 160 184 2,300  Level Atlanta TRACON
Sat 11:06:05 AM 33.6500 -84.3500 90° East 207 238 3,600 1,789 Climbing Atlanta TRACON
Sat 11:07:05 AM 33.6667 -84.2667 76° East 263 303 5,700 2,300 Climbing Atlanta TRACON
Sat 11:08:05 AM 33.7000 -84.1833 64° Northeast 287 330 8,200 1,633 Climbing Atlanta TRACON
Sat 11:09:43 AM 33.8317 -84.1814 North 318 366 10,000 911 Climbing Atlanta Center
Sat 11:10:43 AM 33.9025 -84.2364 327° Northwest 289 333 10,600 1,200 Climbing Atlanta Center
Sat 11:11:43 AM 33.9922 -84.2769 339° North 322 371 12,400 1,600 Climbing Atlanta Center
Sat 11:12:43 AM 34.1008 -84.2772 360° North 368 423 13,800 1,600 Climbing Atlanta Center
Sat 11:13:43 AM 34.2156 -84.2825 358° North 394 453 15,600 1,950 Climbing Atlanta Center
Sat 11:14:43 AM 34.3306 -84.2703 North 406 467 17,700 2,000 Climbing Atlanta Center
Sat 11:15:43 AM 34.4517 -84.2453 10° North 428 493 19,600 1,800 Climbing Atlanta Center
Sat 11:16:43 AM 34.5747 -84.2153 11° North 439 505 21,300 1,600 Climbing Atlanta Center
Sat 11:17:43 AM 34.6978 -84.1878 10° North 450 518 22,800 1,450 Climbing Atlanta Center
Sat 11:18:43 AM 34.8294 -84.1578 11° North 457 526 24,200 1,300 Climbing Atlanta Center
Sat 11:19:43 AM 34.9650 -84.1250 11° North 478 550 25,400 1,150 Climbing Atlanta Center
Sat 11:20:43 AM 35.1047 -84.0922 11° North 497 572 26,500 1,050 Climbing Atlanta Center
Sat 11:21:43 AM 35.2489 -84.0567 11° North 509 586 27,500 1,050 Climbing Atlanta Center
Sat 11:22:43 AM 35.4117 -84.0158 12° North 530 610 28,600 900 Climbing Atlanta Center
Sat 11:23:43 AM 35.5617 -83.9800 11° North 530 610 29,300 950 Climbing Atlanta Center
Sat 11:24:43 AM 35.7100 -83.9442 11° North 535 616 30,500 1,000 Climbing Atlanta Center
Sat 11:25:43 AM 35.8581 -83.9081 11° North 535 616 31,300 750 Climbing Atlanta Center
Sat 11:26:43 AM 35.9997 -83.8333 23° Northeast 545 627 32,000 400 Climbing Atlanta Center
Sat 11:27:43 AM 36.1372 -83.7508 26° Northeast 545 627 32,100 457 Climbing Atlanta Center
Sat 11:28:15 AM 36.1925 -83.7133 29° Northeast 547 629 32,700 1,290 Climbing Indianapolis Center
Sat 11:29:16 AM 36.3253 -83.6283 27° Northeast 540 621 34,100 1,082 Climbing Indianapolis Center
Sat 11:30:17 AM 36.4572 -83.5442 27° Northeast 535 616 34,900 443 Climbing Indianapolis Center
Sat 11:31:18 AM 36.5978 -83.4561 27° Northeast 551 634 35,000 48 Climbing Indianapolis Center
Sat 11:32:22 AM 36.7567 -83.3539 27° Northeast 549 632 35,000  Level Indianapolis Center
Sat 11:33:23 AM 36.8911 -83.2675 27° Northeast 541 623 35,000  Level Indianapolis Center
Sat 11:34:24 AM 37.0294 -83.1783 27° Northeast 549 632 35,000  Level Indianapolis Center
Sat 11:35:27 AM 37.1647 -83.0906 27° Northeast 540 621 35,000  Level Indianapolis Center
Sat 11:36:28 AM 37.2992 -83.0025 28° Northeast 538 619 35,000  Level Indianapolis Center
Sat 11:37:29 AM 37.4322 -82.9133 28° Northeast 537 618 35,000  Level Indianapolis Center
Sat 11:38:30 AM 37.5656 -82.8261 27° Northeast 537 618 35,000  Level Indianapolis Center
Sat 11:39:34 AM 37.7069 -82.7592 21° North 543 625 35,000  Level Indianapolis Center
Sat 11:40:35 AM 37.8547 -82.7183 12° North 542 624 35,000  Level Indianapolis Center
Sat 11:41:36 AM 38.0042 -82.6756 13° North 548 631 35,000  Level Indianapolis Center
Sat 11:42:37 AM 38.1758 -82.6247 13° North 542 624 35,000 -194 Level Indianapolis Center
Sat 11:43:40 AM 38.3247 -82.5814 13° North 546 628 34,600 -677 Descending Indianapolis Center
Sat 11:44:41 AM 38.4731 -82.5392 13° North 545 627 33,600 -984 Descending Indianapolis Center
Sat 11:45:42 AM 38.6186 -82.4953 13° North 538 619 32,600 -774 Descending Indianapolis Center
Sat 11:46:45 AM 38.7536 -82.4567 13° North 534 615 32,000 -387 Descending Indianapolis Center
Sat 11:48:00 AM 38.8985 -82.3990 12° North  Level FlightAware Approximate
Sat 11:48:48 AM 39.0739 -82.3619 12° North 531 611 31,400  Level Indianapolis Center
Sat 11:49:48 AM 39.2197 -82.3183 13° North 534 615 30,700 -726 Descending Indianapolis Center
Sat 11:50:52 AM 39.3653 -82.2753 13° North 534 615 29,900 -968 Descending Indianapolis Center
Sat 11:51:52 AM 39.5008 -82.2333 13° North 533 613 28,700 -1,835 Descending Indianapolis Center
Sat 11:52:53 AM 39.6486 -82.1900 13° North 541 623 26,200 -2,683 Descending Indianapolis Center
Sat 11:53:55 AM 39.8175 -82.1381 13° North 529 609 23,200 -2,976 Descending Indianapolis Center
Sat 11:54:58 AM 39.9464 -82.0989 13° North 478 550 20,000 -2,903 Descending Indianapolis Center
Sat 11:55:59 AM 40.0689 -82.0608 13° North 453 521 17,200 -3,049 Descending Indianapolis Center
Sat 11:57:00 AM 40.1825 -82.0258 13° North 420 483 13,800 -2,758 Descending Indianapolis Center
Sat 11:58:03 AM 40.2850 -81.9936 13° North 407 468 11,500 -1,887 Descending Indianapolis Center
Sat 11:59:04 AM 40.4014 -81.9569 13° North 361 415 9,900 -1,091 Descending Indianapolis Center
Sat 12:00:04 PM 40.4825 -81.9272 16° North 303 349 9,300 -532 Descending Indianapolis Center
Sat 12:01:08 PM 40.5489 -81.8653 35° Northeast 290 334 8,800 -1,065 Descending Indianapolis Center
Sat 12:02:08 PM 40.6133 -81.8042 36° Northeast 285 328 7,100 -1,661 Descending Indianapolis Center
Sat 12:03:00 PM 40.6636 -81.7547 37° Northeast 272 313 5,700 -1,607 Descending Cleveland Center
Sat 12:04:00 PM 40.7206 -81.6953 38° Northeast 272 313 4,100 -850 Descending Cleveland Center
Sat 12:05:00 PM 40.7753 -81.6278 43° Northeast 250 288 4,000 -200 Descending Cleveland Center
Sat 12:06:00 PM 40.8194 -81.5792 40° Northeast 224 258 3,700 -650 Descending Cleveland Center
Sat 12:07:00 PM 40.8533 -81.5303 47° Northeast 189 217 2,700 -850 Descending Cleveland Center
Sat 12:08:00 PM 40.8786 -81.4975 44° Northeast 149 171 2,000 -650 Descending Cleveland Center
Sat 12:09:00 PM 40.9017 -81.4650 47° Northeast 140 161 1,400 -600 Descending Cleveland Center

Login

Don't have an account? Register now (free) for customized features, flight alerts, and more!